sensor_id;sensor_type;location;lat;lon;timestamp;temperature;humidity
53314;DHT22;39202;51.468;7.146;2023-08-06T00:03:24;27.90;45.40
53314;DHT22;39202;51.468;7.146;2023-08-06T00:08:26;27.90;45.40
53314;DHT22;39202;51.468;7.146;2023-08-06T00:13:29;27.90;45.40
53314;DHT22;39202;51.468;7.146;2023-08-06T00:18:30;27.90;45.40
53314;DHT22;39202;51.468;7.146;2023-08-06T00:23:32;27.80;45.40
53314;DHT22;39202;51.468;7.146;2023-08-06T00:28:35;27.80;45.40
53314;DHT22;39202;51.468;7.146;2023-08-06T00:33:37;27.80;45.40
53314;DHT22;39202;51.468;7.146;2023-08-06T00:38:39;27.80;45.40
53314;DHT22;39202;51.468;7.146;2023-08-06T00:43:42;27.80;45.40
53314;DHT22;39202;51.468;7.146;2023-08-06T00:49:07;27.80;45.50
53314;DHT22;39202;51.468;7.146;2023-08-06T00:54:29;27.80;45.40
53314;DHT22;39202;51.468;7.146;2023-08-06T00:59:50;27.80;45.10
53314;DHT22;39202;51.468;7.146;2023-08-06T01:53:13;27.70;45.60
53314;DHT22;39202;51.468;7.146;2023-08-06T01:58:15;27.70;45.50
53314;DHT22;39202;51.468;7.146;2023-08-06T02:03:16;27.70;45.60
53314;DHT22;39202;51.468;7.146;2023-08-06T02:08:19;27.70;45.60
53314;DHT22;39202;51.468;7.146;2023-08-06T02:13:21;27.60;45.50
53314;DHT22;39202;51.468;7.146;2023-08-06T02:18:23;27.70;45.60
53314;DHT22;39202;51.468;7.146;2023-08-06T02:23:26;27.60;45.50
53314;DHT22;39202;51.468;7.146;2023-08-06T02:28:28;27.60;45.50
53314;DHT22;39202;51.468;7.146;2023-08-06T02:33:30;27.60;45.50
53314;DHT22;39202;51.468;7.146;2023-08-06T02:38:33;27.60;45.50
53314;DHT22;39202;51.468;7.146;2023-08-06T02:43:35;27.60;45.60
53314;DHT22;39202;51.468;7.146;2023-08-06T02:48:36;27.60;45.60
53314;DHT22;39202;51.468;7.146;2023-08-06T02:53:39;27.60;45.60
53314;DHT22;39202;51.468;7.146;2023-08-06T02:58:42;27.60;45.60
53314;DHT22;39202;51.468;7.146;2023-08-06T03:03:43;27.60;45.60
53314;DHT22;39202;51.468;7.146;2023-08-06T03:08:46;27.60;45.60
53314;DHT22;39202;51.468;7.146;2023-08-06T03:13:48;27.60;45.60
53314;DHT22;39202;51.468;7.146;2023-08-06T03:18:50;27.60;45.60
53314;DHT22;39202;51.468;7.146;2023-08-06T03:23:53;27.60;45.60
53314;DHT22;39202;51.468;7.146;2023-08-06T03:28:54;27.60;45.60
53314;DHT22;39202;51.468;7.146;2023-08-06T03:33:56;27.60;45.60
53314;DHT22;39202;51.468;7.146;2023-08-06T03:38:59;27.50;46.10
53314;DHT22;39202;51.468;7.146;2023-08-06T03:44:01;27.60;45.60
53314;DHT22;39202;51.468;7.146;2023-08-06T03:49:04;27.60;45.70
53314;DHT22;39202;51.468;7.146;2023-08-06T03:54:07;27.50;45.60
53314;DHT22;39202;51.468;7.146;2023-08-06T03:59:08;27.50;45.60
53314;DHT22;39202;51.468;7.146;2023-08-06T04:04:10;27.60;45.70
53314;DHT22;39202;51.468;7.146;2023-08-06T04:09:13;27.50;45.60
53314;DHT22;39202;51.468;7.146;2023-08-06T04:14:15;27.50;45.60
53314;DHT22;39202;51.468;7.146;2023-08-06T04:19:17;27.50;45.60
53314;DHT22;39202;51.468;7.146;2023-08-06T04:24:20;27.50;45.60
53314;DHT22;39202;51.468;7.146;2023-08-06T04:29:21;27.50;45.60
53314;DHT22;39202;51.468;7.146;2023-08-06T04:34:23;27.50;45.60
53314;DHT22;39202;51.468;7.146;2023-08-06T04:39:26;27.50;45.70
53314;DHT22;39202;51.468;7.146;2023-08-06T04:44:28;27.50;45.70
53314;DHT22;39202;51.468;7.146;2023-08-06T04:49:29;27.50;45.70
53314;DHT22;39202;51.468;7.146;2023-08-06T04:54:33;27.50;45.70
53314;DHT22;39202;51.468;7.146;2023-08-06T04:59:35;27.50;45.70
53314;DHT22;39202;51.468;7.146;2023-08-06T05:04:36;27.50;45.70
53314;DHT22;39202;51.468;7.146;2023-08-06T05:14:41;27.40;45.10
53314;DHT22;39202;51.468;7.146;2023-08-06T05:19:43;27.50;45.70
53314;DHT22;39202;51.468;7.146;2023-08-06T05:24:46;27.40;45.60
53314;DHT22;39202;51.468;7.146;2023-08-06T05:29:48;27.40;45.70
53314;DHT22;39202;51.468;7.146;2023-08-06T05:34:50;27.40;45.60
53314;DHT22;39202;51.468;7.146;2023-08-06T05:39:53;27.40;45.60
53314;DHT22;39202;51.468;7.146;2023-08-06T05:44:54;27.50;45.70
53314;DHT22;39202;51.468;7.146;2023-08-06T05:49:56;27.50;45.70
53314;DHT22;39202;51.468;7.146;2023-08-06T05:54:59;27.50;45.70
53314;DHT22;39202;51.468;7.146;2023-08-06T06:00:01;27.40;45.70
53314;DHT22;39202;51.468;7.146;2023-08-06T06:05:05;27.50;45.70
53314;DHT22;39202;51.468;7.146;2023-08-06T06:10:09;27.40;45.70
53314;DHT22;39202;51.468;7.146;2023-08-06T06:15:11;27.40;45.70
53314;DHT22;39202;51.468;7.146;2023-08-06T06:20:12;27.50;45.80
53314;DHT22;39202;51.468;7.146;2023-08-06T06:25:16;27.50;45.80
53314;DHT22;39202;51.468;7.146;2023-08-06T06:30:17;27.50;45.70
53314;DHT22;39202;51.468;7.146;2023-08-06T06:35:19;27.50;45.70
53314;DHT22;39202;51.468;7.146;2023-08-06T06:40:22;27.60;45.80
53314;DHT22;39202;51.468;7.146;2023-08-06T06:45:24;27.50;45.70
53314;DHT22;39202;51.468;7.146;2023-08-06T06:50:25;27.50;45.70
53314;DHT22;39202;51.468;7.146;2023-08-06T06:55:29;27.60;45.80
53314;DHT22;39202;51.468;7.146;2023-08-06T07:00:30;27.50;45.70
53314;DHT22;39202;51.468;7.146;2023-08-06T07:05:32;27.60;45.80
53314;DHT22;39202;51.468;7.146;2023-08-06T07:10:35;27.40;45.60
53314;DHT22;39202;51.468;7.146;2023-08-06T07:15:37;27.60;45.80
53314;DHT22;39202;51.468;7.146;2023-08-06T07:20:39;27.50;45.70
53314;DHT22;39202;51.468;7.146;2023-08-06T07:25:42;27.60;45.80
53314;DHT22;39202;51.468;7.146;2023-08-06T07:30:44;27.60;45.70
53314;DHT22;39202;51.468;7.146;2023-08-06T07:35:46;27.60;45.70
53314;DHT22;39202;51.468;7.146;2023-08-06T07:40:49;27.50;45.70
53314;DHT22;39202;51.468;7.146;2023-08-06T07:45:51;27.60;45.80
53314;DHT22;39202;51.468;7.146;2023-08-06T07:50:53;27.60;45.80
53314;DHT22;39202;51.468;7.146;2023-08-06T07:55:56;27.60;45.80
53314;DHT22;39202;51.468;7.146;2023-08-06T08:00:58;27.60;45.80
53314;DHT22;39202;51.468;7.146;2023-08-06T08:06:00;27.60;45.80
53314;DHT22;39202;51.468;7.146;2023-08-06T08:11:03;27.60;45.80
53314;DHT22;39202;51.468;7.146;2023-08-06T08:16:05;27.60;45.80
53314;DHT22;39202;51.468;7.146;2023-08-06T08:21:07;27.60;45.80
53314;DHT22;39202;51.468;7.146;2023-08-06T08:26:10;27.60;45.80
53314;DHT22;39202;51.468;7.146;2023-08-06T08:31:12;27.60;45.90
53314;DHT22;39202;51.468;7.146;2023-08-06T08:36:14;27.70;45.90
53314;DHT22;39202;51.468;7.146;2023-08-06T08:41:17;27.70;45.90
53314;DHT22;39202;51.468;7.146;2023-08-06T08:46:19;27.70;45.80
53314;DHT22;39202;51.468;7.146;2023-08-06T08:51:21;27.70;45.80
53314;DHT22;39202;51.468;7.146;2023-08-06T08:56:25;27.80;45.80
53314;DHT22;39202;51.468;7.146;2023-08-06T09:01:27;27.80;45.70
53314;DHT22;39202;51.468;7.146;2023-08-06T09:06:30;27.80;45.70
53314;DHT22;39202;51.468;7.146;2023-08-06T09:11:38;27.80;45.70
53314;DHT22;39202;51.468;7.146;2023-08-06T09:16:41;27.80;45.70
53314;DHT22;39202;51.468;7.146;2023-08-06T09:21:43;27.70;45.60
53314;DHT22;39202;51.468;7.146;2023-08-06T09:26:46;27.80;45.70
53314;DHT22;39202;51.468;7.146;2023-08-06T09:31:50;27.80;45.70
53314;DHT22;39202;51.468;7.146;2023-08-06T09:36:53;27.80;45.60
53314;DHT22;39202;51.468;7.146;2023-08-06T09:41:57;27.70;45.60
53314;DHT22;39202;51.468;7.146;2023-08-06T09:47:01;27.70;45.60
53314;DHT22;39202;51.468;7.146;2023-08-06T09:52:04;27.80;45.60
53314;DHT22;39202;51.468;7.146;2023-08-06T09:57:08;27.80;45.60
53314;DHT22;39202;51.468;7.146;2023-08-06T10:02:12;27.80;45.60
53314;DHT22;39202;51.468;7.146;2023-08-06T10:07:14;27.80;45.60
53314;DHT22;39202;51.468;7.146;2023-08-06T10:12:19;27.80;45.60
53314;DHT22;39202;51.468;7.146;2023-08-06T10:17:22;27.70;45.50
53314;DHT22;39202;51.468;7.146;2023-08-06T10:22:24;27.70;45.60
53314;DHT22;39202;51.468;7.146;2023-08-06T10:27:32;27.80;45.60
53314;DHT22;39202;51.468;7.146;2023-08-06T10:32:46;27.80;45.60
53314;DHT22;39202;51.468;7.146;2023-08-06T10:37:48;27.80;45.70
53314;DHT22;39202;51.468;7.146;2023-08-06T10:42:51;27.80;45.70
53314;DHT22;39202;51.468;7.146;2023-08-06T10:47:53;27.80;45.70
53314;DHT22;39202;51.468;7.146;2023-08-06T10:52:55;27.80;45.70
53314;DHT22;39202;51.468;7.146;2023-08-06T10:57:59;27.80;45.70
53314;DHT22;39202;51.468;7.146;2023-08-06T11:03:00;27.80;45.70
53314;DHT22;39202;51.468;7.146;2023-08-06T11:08:02;27.80;45.70
53314;DHT22;39202;51.468;7.146;2023-08-06T11:13:05;27.90;45.70
53314;DHT22;39202;51.468;7.146;2023-08-06T11:18:08;27.90;45.70
53314;DHT22;39202;51.468;7.146;2023-08-06T11:23:10;27.90;45.60
53314;DHT22;39202;51.468;7.146;2023-08-06T11:28:13;27.90;45.60
53314;DHT22;39202;51.468;7.146;2023-08-06T11:33:20;27.90;45.60
53314;DHT22;39202;51.468;7.146;2023-08-06T11:38:24;27.90;45.60
53314;DHT22;39202;51.468;7.146;2023-08-06T11:43:30;27.90;45.60
53314;DHT22;39202;51.468;7.146;2023-08-06T11:48:50;27.90;45.60
53314;DHT22;39202;51.468;7.146;2023-08-06T11:53:55;27.90;45.60
53314;DHT22;39202;51.468;7.146;2023-08-06T11:58:58;27.90;45.70
53314;DHT22;39202;51.468;7.146;2023-08-06T12:04:00;27.90;45.60
53314;DHT22;39202;51.468;7.146;2023-08-06T12:09:02;27.90;45.60
53314;DHT22;39202;51.468;7.146;2023-08-06T12:14:05;27.90;45.60
53314;DHT22;39202;51.468;7.146;2023-08-06T12:19:06;27.90;45.60
53314;DHT22;39202;51.468;7.146;2023-08-06T12:24:08;28.00;45.70
53314;DHT22;39202;51.468;7.146;2023-08-06T12:29:12;27.90;45.60
53314;DHT22;39202;51.468;7.146;2023-08-06T12:34:14;27.90;45.60
53314;DHT22;39202;51.468;7.146;2023-08-06T12:39:16;27.90;45.60
53314;DHT22;39202;51.468;7.146;2023-08-06T12:44:19;27.90;46.20
53314;DHT22;39202;51.468;7.146;2023-08-06T12:49:21;27.90;45.50
53314;DHT22;39202;51.468;7.146;2023-08-06T12:54:22;27.90;45.50
53314;DHT22;39202;51.468;7.146;2023-08-06T12:59:26;27.90;45.60
53314;DHT22;39202;51.468;7.146;2023-08-06T13:04:27;27.90;45.50
53314;DHT22;39202;51.468;7.146;2023-08-06T13:09:29;27.90;45.50
53314;DHT22;39202;51.468;7.146;2023-08-06T13:14:32;27.90;45.50
53314;DHT22;39202;51.468;7.146;2023-08-06T13:19:34;27.90;45.50
53314;DHT22;39202;51.468;7.146;2023-08-06T13:24:36;27.90;45.50
53314;DHT22;39202;51.468;7.146;2023-08-06T13:29:39;27.90;45.50
53314;DHT22;39202;51.468;7.146;2023-08-06T13:34:41;27.80;45.50
53314;DHT22;39202;51.468;7.146;2023-08-06T13:39:42;27.90;45.60
53314;DHT22;39202;51.468;7.146;2023-08-06T13:44:45;27.80;45.50
53314;DHT22;39202;51.468;7.146;2023-08-06T13:49:47;27.80;45.50
53314;DHT22;39202;51.468;7.146;2023-08-06T13:54:49;27.80;45.50
53314;DHT22;39202;51.468;7.146;2023-08-06T13:59:52;27.80;45.50
53314;DHT22;39202;51.468;7.146;2023-08-06T14:04:54;27.90;45.60
53314;DHT22;39202;51.468;7.146;2023-08-06T14:09:56;27.80;45.50
53314;DHT22;39202;51.468;7.146;2023-08-06T14:15:00;27.80;45.50
53314;DHT22;39202;51.468;7.146;2023-08-06T14:20:04;27.80;45.50
53314;DHT22;39202;51.468;7.146;2023-08-06T14:25:08;27.80;45.50
53314;DHT22;39202;51.468;7.146;2023-08-06T14:30:11;27.80;45.60
53314;DHT22;39202;51.468;7.146;2023-08-06T14:35:13;27.80;45.60
53314;DHT22;39202;51.468;7.146;2023-08-06T14:40:15;27.80;45.60
53314;DHT22;39202;51.468;7.146;2023-08-06T14:45:18;27.70;45.50
53314;DHT22;39202;51.468;7.146;2023-08-06T14:50:20;27.80;45.60
53314;DHT22;39202;51.468;7.146;2023-08-06T14:55:25;27.70;45.60
53314;DHT22;39202;51.468;7.146;2023-08-06T15:00:28;27.70;45.60
53314;DHT22;39202;51.468;7.146;2023-08-06T15:05:30;27.70;45.60
53314;DHT22;39202;51.468;7.146;2023-08-06T15:10:31;27.70;45.60
53314;DHT22;39202;51.468;7.146;2023-08-06T15:15:35;27.70;45.60
53314;DHT22;39202;51.468;7.146;2023-08-06T15:20:40;27.70;45.60
53314;DHT22;39202;51.468;7.146;2023-08-06T15:25:41;27.70;45.60
53314;DHT22;39202;51.468;7.146;2023-08-06T15:30:49;27.70;45.60
53314;DHT22;39202;51.468;7.146;2023-08-06T15:35:51;27.70;45.60
53314;DHT22;39202;51.468;7.146;2023-08-06T15:40:53;27.70;45.60
53314;DHT22;39202;51.468;7.146;2023-08-06T15:45:56;27.70;45.70
53314;DHT22;39202;51.468;7.146;2023-08-06T15:50:58;27.70;45.60
53314;DHT22;39202;51.468;7.146;2023-08-06T15:56:00;27.70;45.60
53314;DHT22;39202;51.468;7.146;2023-08-06T16:01:04;27.70;45.60
53314;DHT22;39202;51.468;7.146;2023-08-06T16:06:05;27.70;45.70
53314;DHT22;39202;51.468;7.146;2023-08-06T16:11:07;27.70;45.70
53314;DHT22;39202;51.468;7.146;2023-08-06T16:16:10;27.70;45.70
53314;DHT22;39202;51.468;7.146;2023-08-06T16:21:12;27.70;45.70
53314;DHT22;39202;51.468;7.146;2023-08-06T16:26:14;27.60;45.60
53314;DHT22;39202;51.468;7.146;2023-08-06T16:31:18;27.70;45.70
53314;DHT22;39202;51.468;7.146;2023-08-06T16:36:19;27.60;45.60
53314;DHT22;39202;51.468;7.146;2023-08-06T16:41:21;27.60;45.70
53314;DHT22;39202;51.468;7.146;2023-08-06T16:46:24;27.60;45.60
53314;DHT22;39202;51.468;7.146;2023-08-06T16:51:26;27.60;45.70
53314;DHT22;39202;51.468;7.146;2023-08-06T16:56:28;27.60;45.60
53314;DHT22;39202;51.468;7.146;2023-08-06T17:01:32;27.60;45.70
53314;DHT22;39202;51.468;7.146;2023-08-06T17:06:35;27.60;45.70
53314;DHT22;39202;51.468;7.146;2023-08-06T17:11:37;27.60;45.70
53314;DHT22;39202;51.468;7.146;2023-08-06T17:16:40;27.60;45.70
53314;DHT22;39202;51.468;7.146;2023-08-06T17:21:42;27.60;45.70
53314;DHT22;39202;51.468;7.146;2023-08-06T17:26:44;27.60;45.70
53314;DHT22;39202;51.468;7.146;2023-08-06T17:31:47;27.60;45.70
53314;DHT22;39202;51.468;7.146;2023-08-06T17:36:48;27.60;46.30
53314;DHT22;39202;51.468;7.146;2023-08-06T17:41:50;27.50;45.60
53314;DHT22;39202;51.468;7.146;2023-08-06T17:46:53;27.50;45.60
53314;DHT22;39202;51.468;7.146;2023-08-06T17:51:55;27.50;45.60
53314;DHT22;39202;51.468;7.146;2023-08-06T17:56:57;27.50;45.60
53314;DHT22;39202;51.468;7.146;2023-08-06T18:02:00;27.50;45.60
53314;DHT22;39202;51.468;7.146;2023-08-06T18:07:01;27.50;45.60
53314;DHT22;39202;51.468;7.146;2023-08-06T18:12:04;27.50;45.70
53314;DHT22;39202;51.468;7.146;2023-08-06T18:17:10;27.50;45.70
53314;DHT22;39202;51.468;7.146;2023-08-06T18:22:12;27.40;45.60
53314;DHT22;39202;51.468;7.146;2023-08-06T18:27:13;27.30;45.50
53314;DHT22;39202;51.468;7.146;2023-08-06T18:32:20;27.40;45.60
53314;DHT22;39202;51.468;7.146;2023-08-06T18:37:22;27.40;45.70
53314;DHT22;39202;51.468;7.146;2023-08-06T18:42:23;27.40;45.70
53314;DHT22;39202;51.468;7.146;2023-08-06T18:47:27;27.40;45.70
53314;DHT22;39202;51.468;7.146;2023-08-06T18:52:29;27.40;45.70
53314;DHT22;39202;51.468;7.146;2023-08-06T18:57:30;27.40;45.70
53314;DHT22;39202;51.468;7.146;2023-08-06T19:02:34;27.40;45.70
53314;DHT22;39202;51.468;7.146;2023-08-06T19:07:35;27.40;45.70
53314;DHT22;39202;51.468;7.146;2023-08-06T19:12:37;27.40;45.70
53314;DHT22;39202;51.468;7.146;2023-08-06T19:17:40;27.40;45.70
53314;DHT22;39202;51.468;7.146;2023-08-06T19:22:42;27.40;45.70
53314;DHT22;39202;51.468;7.146;2023-08-06T19:27:43;27.40;45.80
53314;DHT22;39202;51.468;7.146;2023-08-06T19:32:47;27.40;45.70
53314;DHT22;39202;51.468;7.146;2023-08-06T19:37:48;27.40;45.70
53314;DHT22;39202;51.468;7.146;2023-08-06T19:42:50;27.40;45.70
53314;DHT22;39202;51.468;7.146;2023-08-06T19:47:53;27.30;45.70
53314;DHT22;39202;51.468;7.146;2023-08-06T19:52:55;27.40;45.80
53314;DHT22;39202;51.468;7.146;2023-08-06T19:57:56;27.30;45.70
53314;DHT22;39202;51.468;7.146;2023-08-06T20:02:59;27.30;45.70
53314;DHT22;39202;51.468;7.146;2023-08-06T20:08:01;27.30;45.80
53314;DHT22;39202;51.468;7.146;2023-08-06T20:13:03;27.20;45.70
53314;DHT22;39202;51.468;7.146;2023-08-06T20:18:06;27.30;45.80
53314;DHT22;39202;51.468;7.146;2023-08-06T20:23:09;27.20;45.70
53314;DHT22;39202;51.468;7.146;2023-08-06T20:28:11;27.20;45.70
53314;DHT22;39202;51.468;7.146;2023-08-06T20:33:14;27.30;45.80
53314;DHT22;39202;51.468;7.146;2023-08-06T20:38:16;27.20;45.80
53314;DHT22;39202;51.468;7.146;2023-08-06T20:43:19;27.20;45.80
53314;DHT22;39202;51.468;7.146;2023-08-06T20:48:22;27.20;45.80
53314;DHT22;39202;51.468;7.146;2023-08-06T20:53:25;27.20;45.80
53314;DHT22;39202;51.468;7.146;2023-08-06T20:58:27;27.20;45.80
53314;DHT22;39202;51.468;7.146;2023-08-06T21:03:30;27.20;45.80
53314;DHT22;39202;51.468;7.146;2023-08-06T21:08:34;27.20;45.80
53314;DHT22;39202;51.468;7.146;2023-08-06T21:13:36;27.20;45.80
53314;DHT22;39202;51.468;7.146;2023-08-06T21:18:39;27.20;45.80
53314;DHT22;39202;51.468;7.146;2023-08-06T21:23:41;27.20;45.80
53314;DHT22;39202;51.468;7.146;2023-08-06T21:28:43;27.10;45.80
53314;DHT22;39202;51.468;7.146;2023-08-06T21:33:46;27.10;45.80
53314;DHT22;39202;51.468;7.146;2023-08-06T21:38:49;27.20;45.80
53314;DHT22;39202;51.468;7.146;2023-08-06T21:43:51;27.10;45.80
53314;DHT22;39202;51.468;7.146;2023-08-06T21:48:55;27.10;45.80
53314;DHT22;39202;51.468;7.146;2023-08-06T21:53:57;27.10;45.80
53314;DHT22;39202;51.468;7.146;2023-08-06T21:58:59;27.10;45.80
53314;DHT22;39202;51.468;7.146;2023-08-06T22:04:03;27.10;45.90
53314;DHT22;39202;51.468;7.146;2023-08-06T22:09:04;27.10;45.90
53314;DHT22;39202;51.468;7.146;2023-08-06T22:14:06;27.10;45.80
53314;DHT22;39202;51.468;7.146;2023-08-06T22:19:09;27.00;45.80
53314;DHT22;39202;51.468;7.146;2023-08-06T22:24:11;27.10;45.90
53314;DHT22;39202;51.468;7.146;2023-08-06T22:29:12;27.00;45.80
53314;DHT22;39202;51.468;7.146;2023-08-06T22:34:15;27.00;45.80
53314;DHT22;39202;51.468;7.146;2023-08-06T22:39:17;27.00;45.80
53314;DHT22;39202;51.468;7.146;2023-08-06T22:44:19;27.00;45.80
53314;DHT22;39202;51.468;7.146;2023-08-06T22:49:22;27.00;45.90
53314;DHT22;39202;51.468;7.146;2023-08-06T22:54:24;27.00;45.80
53314;DHT22;39202;51.468;7.146;2023-08-06T22:59:25;27.00;45.80
53314;DHT22;39202;51.468;7.146;2023-08-06T23:04:28;27.00;45.90
53314;DHT22;39202;51.468;7.146;2023-08-06T23:09:31;27.00;45.90
53314;DHT22;39202;51.468;7.146;2023-08-06T23:14:33;26.90;45.80
53314;DHT22;39202;51.468;7.146;2023-08-06T23:19:36;26.90;45.80
53314;DHT22;39202;51.468;7.146;2023-08-06T23:24:37;26.90;45.80
53314;DHT22;39202;51.468;7.146;2023-08-06T23:29:39;27.00;46.20
53314;DHT22;39202;51.468;7.146;2023-08-06T23:34:42;26.90;45.80
53314;DHT22;39202;51.468;7.146;2023-08-06T23:39:44;26.90;46.30
53314;DHT22;39202;51.468;7.146;2023-08-06T23:44:45;26.80;65.00
53314;DHT22;39202;51.468;7.146;2023-08-06T23:49:48;26.90;45.80
53314;DHT22;39202;51.468;7.146;2023-08-06T23:54:50;26.90;45.90
53314;DHT22;39202;51.468;7.146;2023-08-06T23:59:52;26.90;45.80
